Time;durP1;ratioP1;P1;durP2;ratioP2;P2;SDS_P1;SDS_P2;PMS_P1;PMS_P2;Temp;Humidity;BMP_temperature;BMP_pressure;BME280_temperature;BME280_humidity;BME280_pressure;Samples;Min_cycle;Max_cycle;Signal;HPM_P1;HPM_P2
2021/01/26 00:00:20;;;;;;;18.08;8.93;;;;;;;;;;5034629;28;20253;-77
2021/01/26 00:02:46;;;;;;;24.05;10.30;;;;;;;;;;5034430;28;20174;-77
2021/01/26 00:05:12;;;;;;;18.58;11.38;;;;;;;;;;5034396;28;20190;-78
2021/01/26 00:07:39;;;;;;;18.98;11.93;;;;;;;;;;5034013;28;20234;-78
2021/01/26 00:10:05;;;;;;;23.27;13.57;;;;;;;;;;5034358;28;20192;-77
2021/01/26 00:12:31;;;;;;;25.88;11.65;;;;;;;;;;5034311;28;20183;-77
2021/01/26 00:14:57;;;;;;;15.20;10.68;;;;;;;;;;5034016;28;20283;-77
2021/01/26 00:17:23;;;;;;;25.27;12.55;;;;;;;;;;5033709;28;20195;-77
2021/01/26 00:19:49;;;;;;;25.17;10.55;;;;;;;;;;5034184;28;20170;-77
2021/01/26 00:22:16;;;;;;;19.05;11.52;;;;;;;;;;5034057;28;20633;-77
2021/01/26 00:24:42;;;;;;;25.10;11.95;;;;;;;;;;5034054;28;20177;-77
2021/01/26 00:27:08;;;;;;;21.55;12.32;;;;;;;;;;5033544;28;20244;-77
2021/01/26 00:29:34;;;;;;;21.33;13.10;;;;;;;;;;5033547;28;20317;-77
2021/01/26 00:31:59;;;;;;;21.13;11.38;;;;;;;;;;5032908;28;20703;-77
2021/01/26 00:34:25;;;;;;;18.53;11.00;;;;;;;;;;5033822;28;20236;-77
2021/01/26 00:36:52;;;;;;;13.43;8.02;;;;;;;;;;5033376;28;20902;-77
2021/01/26 00:39:17;;;;;;;18.27;11.50;;;;;;;;;;5033613;28;20186;-77
2021/01/26 00:41:43;;;;;;;18.70;10.80;;;;;;;;;;5033712;28;20516;-77
2021/01/26 00:44:09;;;;;;;15.40;7.20;;;;;;;;;;5033628;28;20463;-76
2021/01/26 00:46:35;;;;;;;19.50;10.10;;;;;;;;;;5033588;28;20418;-77
2021/01/26 00:49:01;;;;;;;20.57;12.60;;;;;;;;;;5033164;28;20197;-78
2021/01/26 00:51:27;;;;;;;17.25;8.95;;;;;;;;;;5033400;28;20407;-77
2021/01/26 00:53:53;;;;;;;20.17;11.80;;;;;;;;;;5033417;28;20696;-76
2021/01/26 00:56:19;;;;;;;19.42;11.73;;;;;;;;;;5033457;28;20491;-77
2021/01/26 00:58:45;;;;;;;20.15;10.25;;;;;;;;;;5033094;28;20735;-76
2021/01/26 01:01:12;;;;;;;25.63;10.50;;;;;;;;;;5032119;28;20187;-77
2021/01/26 01:03:38;;;;;;;20.60;11.13;;;;;;;;;;5033447;28;20236;-77
2021/01/26 01:06:04;;;;;;;16.48;9.10;;;;;;;;;;5033340;28;20176;-76
2021/01/26 01:08:30;;;;;;;15.80;10.52;;;;;;;;;;5032918;28;20551;-76
2021/01/26 01:10:56;;;;;;;21.83;12.23;;;;;;;;;;5033340;28;20188;-76
2021/01/26 01:13:22;;;;;;;17.73;10.00;;;;;;;;;;5033105;28;20913;-77
2021/01/26 01:15:48;;;;;;;19.63;11.93;;;;;;;;;;5033162;28;20210;-77
2021/01/26 01:18:14;;;;;;;23.25;11.75;;;;;;;;;;5032806;28;20932;-76
2021/01/26 01:20:40;;;;;;;25.52;12.90;;;;;;;;;;5033245;28;20168;-76
2021/01/26 01:23:06;;;;;;;22.23;12.33;;;;;;;;;;5033323;28;20274;-76
2021/01/26 01:25:32;;;;;;;14.70;9.30;;;;;;;;;;5032963;28;20422;-77
2021/01/26 01:27:58;;;;;;;13.30;9.18;;;;;;;;;;5032662;28;20195;-76
2021/01/26 01:30:28;;;;;;;20.73;10.05;;;;;;;;;;5033188;28;20177;-77
2021/01/26 01:32:54;;;;;;;26.73;11.55;;;;;;;;;;5033280;28;20258;-77
2021/01/26 01:35:20;;;;;;;15.90;9.88;;;;;;;;;;5031663;28;20262;-76
2021/01/26 01:37:47;;;;;;;15.27;9.20;;;;;;;;;;5032431;28;20249;-77
2021/01/26 01:40:15;;;;;;;16.08;7.03;;;;;;;;;;5032856;28;20258;-76
2021/01/26 01:42:42;;;;;;;14.13;8.52;;;;;;;;;;5036900;28;20179;-76
2021/01/26 01:45:09;;;;;;;15.00;9.35;;;;;;;;;;5036945;28;20178;-77
2021/01/26 01:47:40;;;;;;;22.80;10.18;;;;;;;;;;5036605;28;20247;-77
2021/01/26 01:50:08;;;;;;;12.40;7.28;;;;;;;;;;5036834;28;20180;-76
2021/01/26 01:52:36;;;;;;;18.33;8.27;;;;;;;;;;5036647;28;20180;-77
2021/01/26 01:55:05;;;;;;;22.58;9.85;;;;;;;;;;5036618;28;20214;-76
2021/01/26 01:57:34;;;;;;;18.75;8.57;;;;;;;;;;5036253;28;20211;-76
2021/01/26 02:00:02;;;;;;;19.45;8.90;;;;;;;;;;5036405;28;20234;-77
2021/01/26 02:02:28;;;;;;;18.55;8.77;;;;;;;;;;5036362;28;20172;-76
2021/01/26 02:04:57;;;;;;;21.00;9.88;;;;;;;;;;5036558;28;20570;-76
2021/01/26 02:07:23;;;;;;;22.20;10.40;;;;;;;;;;5036070;28;20199;-76
2021/01/26 02:09:49;;;;;;;14.00;8.80;;;;;;;;;;5036271;28;20206;-77
2021/01/26 02:12:15;;;;;;;17.27;8.60;;;;;;;;;;5036548;28;20232;-76
2021/01/26 02:14:44;;;;;;;17.88;9.98;;;;;;;;;;5036252;28;20208;-77
2021/01/26 02:17:28;;;;;;;19.10;9.15;;;;;;;;;;5035820;28;20189;-77
2021/01/26 02:20:13;;;;;;;17.38;10.00;;;;;;;;;;5036325;28;20170;-77
2021/01/26 02:22:39;;;;;;;17.88;9.02;;;;;;;;;;5036340;28;20204;-77
2021/01/26 02:25:23;;;;;;;12.03;7.90;;;;;;;;;;5036200;28;20221;-77
2021/01/26 02:27:52;;;;;;;21.33;10.63;;;;;;;;;;5035759;28;20425;-77
2021/01/26 02:30:18;;;;;;;16.10;8.63;;;;;;;;;;5035933;28;20598;-77
2021/01/26 02:33:03;;;;;;;20.07;7.60;;;;;;;;;;5034774;28;20212;-77
2021/01/26 02:35:38;;;;;;;21.65;9.20;;;;;;;;;;5036055;28;20460;-77
2021/01/26 02:38:19;;;;;;;20.65;8.45;;;;;;;;;;5035598;28;20544;-77
2021/01/26 02:40:52;;;;;;;13.23;7.80;;;;;;;;;;5035976;28;20177;-77
2021/01/26 02:43:27;;;;;;;9.80;7.70;;;;;;;;;;5035934;28;20179;-76
2021/01/26 02:46:00;;;;;;;16.10;8.38;;;;;;;;;;5035881;28;20168;-77
2021/01/26 02:48:32;;;;;;;13.25;7.30;;;;;;;;;;5035409;28;20193;-77
2021/01/26 02:51:25;;;;;;;14.95;7.70;;;;;;;;;;5035710;28;20177;-77
2021/01/26 02:53:51;;;;;;;19.15;7.32;;;;;;;;;;5033539;28;20239;-76
2021/01/26 02:56:26;;;;;;;15.97;9.23;;;;;;;;;;5035464;28;20177;-77
2021/01/26 02:58:56;;;;;;;13.50;8.18;;;;;;;;;;5035323;28;20436;-76
2021/01/26 03:01:25;;;;;;;13.70;8.35;;;;;;;;;;5035524;28;20581;-77
2021/01/26 03:03:52;;;;;;;16.30;8.65;;;;;;;;;;5035432;28;20176;-76
2021/01/26 03:06:20;;;;;;;20.17;9.00;;;;;;;;;;5035609;28;20260;-77
2021/01/26 03:08:52;;;;;;;23.27;8.75;;;;;;;;;;5035227;28;20202;-77
2021/01/26 03:11:28;;;;;;;18.55;9.40;;;;;;;;;;5035500;28;20546;-77
2021/01/26 03:13:58;;;;;;;13.63;8.98;;;;;;;;;;5037340;28;20198;-77
2021/01/26 03:16:25;;;;;;;21.23;9.13;;;;;;;;;;5035338;28;20172;-77
2021/01/26 03:19:02;;;;;;;12.52;7.45;;;;;;;;;;5035198;28;20294;-77
2021/01/26 03:21:29;;;;;;;17.30;9.20;;;;;;;;;;5035612;28;20195;-77
2021/01/26 03:24:02;;;;;;;16.30;9.10;;;;;;;;;;5035736;28;20544;-77
2021/01/26 03:26:28;;;;;;;17.85;10.45;;;;;;;;;;5035235;28;20234;-77
2021/01/26 03:28:56;;;;;;;19.25;9.50;;;;;;;;;;5035058;28;20230;-77
2021/01/26 03:31:32;;;;;;;16.77;8.30;;;;;;;;;;5035031;28;20182;-77
2021/01/26 03:33:58;;;;;;;12.60;7.28;;;;;;;;;;5035012;28;20215;-77
2021/01/26 03:36:24;;;;;;;13.63;8.57;;;;;;;;;;5034931;28;20255;-77
2021/01/26 03:38:52;;;;;;;16.47;8.50;;;;;;;;;;5034369;28;20277;-77
2021/01/26 03:41:18;;;;;;;13.85;7.25;;;;;;;;;;5034764;28;20408;-77
2021/01/26 03:43:45;;;;;;;16.05;7.38;;;;;;;;;;5033761;28;20187;-77
2021/01/26 03:46:17;;;;;;;14.02;8.88;;;;;;;;;;5034971;28;20181;-77
2021/01/26 03:48:52;;;;;;;14.45;8.55;;;;;;;;;;5034470;28;20251;-76
2021/01/26 03:51:37;;;;;;;19.48;8.45;;;;;;;;;;5034589;28;20181;-76
2021/01/26 03:54:17;;;;;;;21.88;8.18;;;;;;;;;;5034427;28;20561;-77
2021/01/26 03:56:46;;;;;;;9.43;7.22;;;;;;;;;;5032807;28;20211;-77
2021/01/26 03:59:15;;;;;;;15.38;8.05;;;;;;;;;;5034287;28;20174;-76
2021/01/26 04:01:43;;;;;;;11.60;6.35;;;;;;;;;;5034270;28;20315;-76
2021/01/26 04:04:12;;;;;;;24.65;9.93;;;;;;;;;;5033361;28;20183;-76
2021/01/26 04:06:38;;;;;;;13.90;8.88;;;;;;;;;;5033980;28;20176;-76
2021/01/26 04:09:07;;;;;;;9.30;6.72;;;;;;;;;;5033948;28;20192;-76
2021/01/26 04:11:39;;;;;;;15.32;6.00;;;;;;;;;;5034183;28;20189;-76
2021/01/26 04:14:12;;;;;;;9.60;6.85;;;;;;;;;;5034236;28;20203;-76
2021/01/26 04:16:44;;;;;;;10.30;5.90;;;;;;;;;;5032544;28;20586;-76
2021/01/26 04:19:15;;;;;;;16.60;8.60;;;;;;;;;;5032695;28;20699;-76
2021/01/26 04:21:41;;;;;;;12.98;7.15;;;;;;;;;;5034172;28;20216;-75
2021/01/26 04:24:07;;;;;;;11.30;6.55;;;;;;;;;;5034115;28;20217;-75
2021/01/26 04:26:35;;;;;;;15.73;6.45;;;;;;;;;;5033840;28;20533;-75
2021/01/26 04:29:01;;;;;;;9.07;5.70;;;;;;;;;;5033439;28;20556;-76
2021/01/26 04:31:27;;;;;;;12.57;6.75;;;;;;;;;;5033822;28;20176;-75
2021/01/26 04:33:53;;;;;;;13.60;7.38;;;;;;;;;;5034010;28;20187;-76
2021/01/26 04:36:21;;;;;;;20.45;7.00;;;;;;;;;;5033800;28;20180;-76
2021/01/26 04:38:48;;;;;;;15.38;6.90;;;;;;;;;;5033450;28;20193;-76
2021/01/26 04:41:14;;;;;;;7.45;5.35;;;;;;;;;;5033647;28;20180;-76
2021/01/26 04:43:58;;;;;;;17.27;7.40;;;;;;;;;;5033878;28;20258;-76
2021/01/26 04:46:50;;;;;;;12.93;7.13;;;;;;;;;;5033701;28;20401;-76
2021/01/26 04:49:35;;;;;;;13.65;6.40;;;;;;;;;;5017791;28;20202;-76
2021/01/26 04:52:20;;;;;;;13.35;6.00;;;;;;;;;;5033601;28;20182;-76
2021/01/26 04:54:46;;;;;;;13.23;6.65;;;;;;;;;;5033433;28;20199;-77
2021/01/26 04:57:30;;;;;;;11.00;6.00;;;;;;;;;;5032973;28;20688;-78
2021/01/26 05:00:05;;;;;;;16.05;7.20;;;;;;;;;;5033366;28;20966;-75
2021/01/26 05:02:49;;;;;;;17.25;8.20;;;;;;;;;;5033363;28;20184;-76
2021/01/26 05:05:17;;;;;;;20.58;7.53;;;;;;;;;;5033113;28;20742;-76
2021/01/26 05:07:51;;;;;;;13.65;7.10;;;;;;;;;;5032921;28;20207;-75
2021/01/26 05:10:23;;;;;;;9.73;7.00;;;;;;;;;;5033226;28;20536;-77
2021/01/26 05:12:54;;;;;;;14.25;6.65;;;;;;;;;;5033618;28;20237;-77
2021/01/26 05:15:24;;;;;;;8.93;5.22;;;;;;;;;;5031719;28;20703;-77
2021/01/26 05:18:02;;;;;;;14.40;6.22;;;;;;;;;;5032796;28;20200;-77
2021/01/26 05:20:33;;;;;;;14.07;6.60;;;;;;;;;;5031928;28;20180;-76
2021/01/26 05:22:59;;;;;;;15.57;6.15;;;;;;;;;;5033230;28;20180;-76
2021/01/26 05:25:25;;;;;;;13.93;6.20;;;;;;;;;;5033021;28;20181;-77
2021/01/26 05:27:52;;;;;;;16.70;8.95;;;;;;;;;;5032672;28;20207;-76
2021/01/26 05:30:25;;;;;;;9.57;4.82;;;;;;;;;;5033341;28;20255;-76
2021/01/26 05:32:52;;;;;;;7.70;4.93;;;;;;;;;;5033390;28;20238;-76
2021/01/26 05:35:18;;;;;;;14.40;6.13;;;;;;;;;;5033265;28;20208;-76
2021/01/26 05:37:46;;;;;;;8.35;5.53;;;;;;;;;;5032417;28;20660;-76
2021/01/26 05:40:12;;;;;;;16.48;6.78;;;;;;;;;;5033149;28;20176;-76
2021/01/26 05:42:39;;;;;;;4.45;3.25;;;;;;;;;;5033116;28;20207;-76
2021/01/26 05:45:11;;;;;;;17.80;6.85;;;;;;;;;;5033031;28;20286;-76
2021/01/26 05:47:39;;;;;;;12.95;6.75;;;;;;;;;;5032496;28;20231;-77
2021/01/26 05:50:07;;;;;;;18.73;7.57;;;;;;;;;;5032860;28;20180;-74
2021/01/26 05:52:39;;;;;;;13.65;6.47;;;;;;;;;;5032819;28;20270;-77
2021/01/26 05:55:16;;;;;;;13.88;7.45;;;;;;;;;;5031581;28;20215;-76
2021/01/26 05:57:42;;;;;;;9.23;6.30;;;;;;;;;;5032412;28;20272;-77
2021/01/26 06:00:20;;;;;;;17.17;7.10;;;;;;;;;;5032692;28;20185;-75
2021/01/26 06:02:47;;;;;;;10.73;6.95;;;;;;;;;;5032873;28;20172;-76
2021/01/26 06:05:20;;;;;;;10.85;6.72;;;;;;;;;;5032815;28;20179;-77
2021/01/26 06:08:05;;;;;;;11.98;6.03;;;;;;;;;;5032286;28;20206;-77
2021/01/26 06:10:32;;;;;;;13.05;6.70;;;;;;;;;;5032485;28;20192;-76
2021/01/26 06:12:58;;;;;;;10.05;5.00;;;;;;;;;;5032523;28;20181;-76
2021/01/26 06:15:25;;;;;;;16.42;8.00;;;;;;;;;;5032678;28;20295;-77
2021/01/26 06:18:07;;;;;;;12.43;6.47;;;;;;;;;;5032177;28;20197;-77
2021/01/26 06:20:35;;;;;;;11.05;6.35;;;;;;;;;;5033009;28;20213;-76
2021/01/26 06:23:10;;;;;;;17.08;6.65;;;;;;;;;;5032784;28;20175;-76
2021/01/26 06:25:37;;;;;;;12.60;5.15;;;;;;;;;;5032776;28;20176;-76
2021/01/26 06:28:10;;;;;;;18.25;6.78;;;;;;;;;;5034751;28;20276;-76
2021/01/26 06:30:42;;;;;;;10.15;6.60;;;;;;;;;;5036306;28;20184;-77
2021/01/26 06:33:14;;;;;;;6.15;5.40;;;;;;;;;;5036190;28;20183;-76
2021/01/26 06:35:59;;;;;;;11.10;7.00;;;;;;;;;;5036131;28;20211;-77
2021/01/26 06:38:36;;;;;;;6.30;5.22;;;;;;;;;;5035619;28;20198;-76
2021/01/26 06:41:07;;;;;;;8.77;6.07;;;;;;;;;;5036189;28;20175;-76
2021/01/26 06:43:43;;;;;;;18.45;6.53;;;;;;;;;;5035820;28;20171;-76
2021/01/26 06:46:34;;;;;;;16.98;6.65;;;;;;;;;;5035786;28;20183;-78
2021/01/26 06:49:00;;;;;;;12.30;6.63;;;;;;;;;;5035526;28;20204;-76
2021/01/26 06:51:26;;;;;;;12.70;7.20;;;;;;;;;;5035851;28;20586;-76
2021/01/26 06:54:01;;;;;;;10.10;7.60;;;;;;;;;;5035845;28;20931;-76
2021/01/26 06:56:42;;;;;;;12.77;7.05;;;;;;;;;;5035494;28;20934;-77
2021/01/26 06:59:20;;;;;;;9.30;6.88;;;;;;;;;;5035698;28;20249;-76
2021/01/26 07:02:04;;;;;;;11.98;5.68;;;;;;;;;;5035574;28;20189;-76
2021/01/26 07:04:48;;;;;;;9.18;6.47;;;;;;;;;;5035203;28;20261;-76
2021/01/26 07:07:33;;;;;;;14.05;7.13;;;;;;;;;;5035002;28;20242;-76
2021/01/26 07:10:18;;;;;;;10.30;7.25;;;;;;;;;;5035197;28;20197;-76
2021/01/26 07:12:44;;;;;;;12.85;7.45;;;;;;;;;;5035351;28;20176;-77
2021/01/26 07:15:10;;;;;;;11.03;7.20;;;;;;;;;;5035508;28;20257;-77
2021/01/26 07:18:02;;;;;;;22.83;8.70;;;;;;;;;;5035334;28;20434;-76
2021/01/26 07:20:34;;;;;;;16.50;7.93;;;;;;;;;;5034710;28;20461;-76
2021/01/26 07:23:22;;;;;;;18.80;9.18;;;;;;;;;;5035157;28;20174;-76
2021/01/26 07:25:48;;;;;;;14.68;7.88;;;;;;;;;;5035473;28;20512;-76
2021/01/26 07:28:38;;;;;;;10.43;7.40;;;;;;;;;;5034546;28;20283;-76
2021/01/26 07:31:11;;;;;;;18.10;6.40;;;;;;;;;;5035189;28;20418;-76
2021/01/26 07:33:56;;;;;;;12.35;7.13;;;;;;;;;;5035112;28;20179;-76
2021/01/26 07:36:25;;;;;;;15.05;6.72;;;;;;;;;;5035083;28;20519;-77
2021/01/26 07:38:51;;;;;;;12.43;5.57;;;;;;;;;;5029222;28;20582;-77
2021/01/26 07:41:25;;;;;;;19.90;7.63;;;;;;;;;;5014930;28;20187;-77
2021/01/26 07:44:10;;;;;;;20.20;8.23;;;;;;;;;;5030220;28;20486;-74
2021/01/26 07:46:44;;;;;;;7.70;5.43;;;;;;;;;;5034549;28;20226;-76
2021/01/26 07:49:29;;;;;;;7.30;5.60;;;;;;;;;;5034587;28;20215;-76
2021/01/26 07:51:57;;;;;;;13.80;7.38;;;;;;;;;;5034379;28;20176;-76
2021/01/26 07:54:45;;;;;;;15.38;7.80;;;;;;;;;;5034305;28;20234;-76
2021/01/26 07:57:11;;;;;;;7.40;5.85;;;;;;;;;;5034005;28;20192;-76
2021/01/26 07:59:48;;;;;;;9.98;5.32;;;;;;;;;;5034486;28;20191;-77
2021/01/26 08:02:19;;;;;;;10.02;7.13;;;;;;;;;;5016082;28;20182;-76
2021/01/26 08:04:45;;;;;;;10.93;6.80;;;;;;;;;;5014352;28;20179;-76
2021/01/26 08:07:21;;;;;;;6.45;5.55;;;;;;;;;;5014118;28;20630;-77
2021/01/26 08:09:48;;;;;;;13.15;6.18;;;;;;;;;;5014366;28;20236;-76
2021/01/26 08:12:20;;;;;;;15.25;5.55;;;;;;;;;;5014468;28;20257;-77
2021/01/26 08:14:53;;;;;;;10.30;6.70;;;;;;;;;;5014080;28;20227;-76
2021/01/26 08:17:40;;;;;;;11.85;7.05;;;;;;;;;;5012533;28;20729;-77
2021/01/26 08:20:11;;;;;;;5.70;4.45;;;;;;;;;;5014386;28;20747;-76
2021/01/26 08:22:39;;;;;;;9.73;5.97;;;;;;;;;;5014116;28;20235;-78
2021/01/26 08:25:24;;;;;;;14.82;7.28;;;;;;;;;;5014104;28;20573;-77
2021/01/26 08:27:51;;;;;;;15.13;7.25;;;;;;;;;;5012476;28;20716;-76
2021/01/26 08:30:22;;;;;;;10.77;7.47;;;;;;;;;;5014325;28;20263;-77
2021/01/26 08:33:05;;;;;;;15.90;7.95;;;;;;;;;;5014300;28;20184;-77
2021/01/26 08:35:33;;;;;;;18.00;6.47;;;;;;;;;;5014164;28;20204;-76
2021/01/26 08:37:59;;;;;;;12.98;7.22;;;;;;;;;;5013852;28;20605;-76
2021/01/26 08:40:28;;;;;;;15.80;7.82;;;;;;;;;;5013991;28;20206;-76
2021/01/26 08:42:54;;;;;;;7.53;5.60;;;;;;;;;;5013937;28;20553;-76
2021/01/26 08:45:26;;;;;;;11.57;6.63;;;;;;;;;;5013861;28;20181;-76
2021/01/26 08:47:52;;;;;;;14.23;6.45;;;;;;;;;;5013641;28;20558;-76
2021/01/26 08:50:18;;;;;;;11.63;6.70;;;;;;;;;;5021941;28;20266;-77
2021/01/26 08:52:44;;;;;;;12.07;6.50;;;;;;;;;;5032312;28;20190;-78
2021/01/26 08:55:30;;;;;;;20.17;6.95;;;;;;;;;;5028395;28;20463;-77
2021/01/26 08:57:56;;;;;;;17.38;6.93;;;;;;;;;;5022639;28;20197;-77
2021/01/26 09:00:27;;;;;;;14.05;6.80;;;;;;;;;;5023203;28;20177;-75
2021/01/26 09:02:54;;;;;;;35.30;18.88;;;;;;;;;;5030584;28;20648;-73
2021/01/26 09:05:35;;;;;;;12.88;7.82;;;;;;;;;;5031891;28;20206;-74
2021/01/26 09:08:07;;;;;;;8.43;6.57;;;;;;;;;;5031004;28;20204;-75
2021/01/26 09:10:37;;;;;;;18.85;7.30;;;;;;;;;;5030986;28;20556;-75
2021/01/26 09:13:12;;;;;;;11.65;6.90;;;;;;;;;;5031390;28;20646;-76
2021/01/26 09:15:45;;;;;;;9.85;6.13;;;;;;;;;;5031665;28;20206;-74
2021/01/26 09:18:14;;;;;;;9.43;7.95;;;;;;;;;;5030231;28;20193;-78
2021/01/26 09:20:41;;;;;;;6.70;5.43;;;;;;;;;;5014336;28;20243;-77
2021/01/26 09:23:08;;;;;;;8.95;7.93;;;;;;;;;;5031366;28;20181;-77
2021/01/26 09:25:42;;;;;;;34.90;11.38;;;;;;;;;;5030818;28;20194;-77
2021/01/26 09:28:12;;;;;;;8.82;7.10;;;;;;;;;;5030934;28;20229;-77
2021/01/26 09:30:40;;;;;;;13.23;8.95;;;;;;;;;;5031747;28;20266;-78
2021/01/26 09:33:26;;;;;;;12.32;8.07;;;;;;;;;;5030448;28;20188;-77
2021/01/26 09:35:53;;;;;;;10.65;8.25;;;;;;;;;;5031235;28;20211;-76
2021/01/26 09:38:25;;;;;;;11.63;6.63;;;;;;;;;;5030977;28;20205;-76
2021/01/26 09:40:56;;;;;;;13.20;7.45;;;;;;;;;;5030485;28;20188;-75
2021/01/26 09:43:24;;;;;;;10.88;5.93;;;;;;;;;;5031670;28;20306;-76
2021/01/26 09:45:58;;;;;;;8.57;6.55;;;;;;;;;;5031108;28;20180;-75
2021/01/26 09:48:27;;;;;;;7.97;5.38;;;;;;;;;;5030398;28;20597;-78
2021/01/26 09:50:53;;;;;;;10.63;6.55;;;;;;;;;;5018731;28;20194;-78
2021/01/26 09:53:23;;;;;;;11.55;6.43;;;;;;;;;;5030363;28;20768;-77
2021/01/26 09:55:52;;;;;;;8.15;6.93;;;;;;;;;;5030296;28;20201;-77
2021/01/26 09:58:18;;;;;;;5.13;4.55;;;;;;;;;;5030829;28;20283;-76
2021/01/26 10:00:44;;;;;;;8.98;5.18;;;;;;;;;;5029864;28;20553;-76
2021/01/26 10:03:10;;;;;;;8.93;4.55;;;;;;;;;;5033590;28;20641;-77
2021/01/26 10:05:36;;;;;;;13.80;6.05;;;;;;;;;;5034322;28;20200;-78
2021/01/26 10:08:05;;;;;;;8.05;5.22;;;;;;;;;;5034710;28;20205;-77
2021/01/26 10:10:31;;;;;;;7.78;3.60;;;;;;;;;;5033786;28;20198;-77
2021/01/26 10:12:57;;;;;;;19.05;6.47;;;;;;;;;;5034962;28;20180;-77
2021/01/26 10:15:23;;;;;;;9.57;5.95;;;;;;;;;;5034486;28;20312;-77
2021/01/26 10:17:52;;;;;;;8.90;4.40;;;;;;;;;;5033471;28;20307;-78
2021/01/26 10:20:32;;;;;;;11.00;5.20;;;;;;;;;;5033125;28;20768;-78
2021/01/26 10:23:15;;;;;;;9.80;6.40;;;;;;;;;;5034857;28;20185;-75
2021/01/26 10:25:42;;;;;;;9.05;6.00;;;;;;;;;;5033813;28;20209;-78
2021/01/26 10:28:28;;;;;;;10.63;5.00;;;;;;;;;;5033078;28;20202;-75
2021/01/26 10:30:55;;;;;;;7.55;4.50;;;;;;;;;;5034366;28;20220;-80
2021/01/26 10:33:35;;;;;;;7.38;5.03;;;;;;;;;;5033941;28;20250;-78
2021/01/26 10:36:24;;;;;;;7.20;4.93;;;;;;;;;;5034622;28;20203;-76
2021/01/26 10:38:50;;;;;;;6.68;3.63;;;;;;;;;;5031603;28;20699;-75
2021/01/26 10:41:24;;;;;;;5.95;3.90;;;;;;;;;;5033389;28;20182;-76
2021/01/26 10:44:00;;;;;;;7.03;4.85;;;;;;;;;;5033921;28;20173;-76
2021/01/26 10:46:40;;;;;;;9.80;4.55;;;;;;;;;;5033681;28;20539;-78
2021/01/26 10:49:30;;;;;;;17.27;5.60;;;;;;;;;;5032931;28;20231;-79
2021/01/26 10:51:56;;;;;;;9.13;3.92;;;;;;;;;;5024140;28;20205;-74
2021/01/26 10:54:23;;;;;;;10.68;4.82;;;;;;;;;;5033602;28;20212;-75
2021/01/26 10:56:49;;;;;;;13.90;5.13;;;;;;;;;;5033402;28;20197;-74
2021/01/26 10:59:17;;;;;;;10.63;4.55;;;;;;;;;;5032881;28;20181;-76
2021/01/26 11:01:43;;;;;;;10.60;3.88;;;;;;;;;;5032969;28;20185;-73
2021/01/26 11:04:10;;;;;;;8.38;4.40;;;;;;;;;;5034127;28;20232;-76
2021/01/26 11:06:36;;;;;;;10.05;6.20;;;;;;;;;;5033812;28;20174;-77
2021/01/26 11:09:03;;;;;;;19.08;5.60;;;;;;;;;;5032992;28;20214;-76
2021/01/26 11:11:29;;;;;;;6.72;3.97;;;;;;;;;;5033700;28;20286;-75
2021/01/26 11:13:57;;;;;;;19.20;5.82;;;;;;;;;;5033478;28;20551;-78
2021/01/26 11:16:24;;;;;;;9.52;4.72;;;;;;;;;;5032487;28;20174;-76
2021/01/26 11:18:50;;;;;;;5.97;4.30;;;;;;;;;;5033924;28;20197;-74
2021/01/26 11:21:16;;;;;;;5.25;3.95;;;;;;;;;;5034355;28;20189;-77
2021/01/26 11:23:42;;;;;;;6.60;4.22;;;;;;;;;;5037147;28;20238;-76
2021/01/26 11:26:10;;;;;;;7.22;5.05;;;;;;;;;;5033633;28;20234;-75
2021/01/26 11:28:36;;;;;;;5.38;4.05;;;;;;;;;;5033552;28;20233;-75
2021/01/26 11:31:02;;;;;;;12.50;3.50;;;;;;;;;;5032493;28;20227;-77
2021/01/26 11:33:28;;;;;;;13.52;5.32;;;;;;;;;;5033635;28;20232;-75
2021/01/26 11:35:55;;;;;;;10.13;4.75;;;;;;;;;;5033300;28;20671;-76
2021/01/26 11:38:21;;;;;;;10.10;4.63;;;;;;;;;;5032155;28;20570;-75
2021/01/26 11:40:48;;;;;;;10.10;5.47;;;;;;;;;;5033085;28;20186;-77
2021/01/26 11:43:14;;;;;;;11.38;4.65;;;;;;;;;;5033103;28;20334;-75
2021/01/26 11:45:40;;;;;;;9.32;4.63;;;;;;;;;;5032367;28;20196;-75
2021/01/26 11:48:08;;;;;;;12.85;6.72;;;;;;;;;;5032552;28;20199;-76
2021/01/26 11:50:35;;;;;;;13.45;5.38;;;;;;;;;;5033007;28;20564;-75
2021/01/26 11:53:01;;;;;;;6.15;3.80;;;;;;;;;;5020098;28;20193;-75
2021/01/26 11:55:29;;;;;;;6.18;3.60;;;;;;;;;;5013159;28;20202;-75
2021/01/26 11:57:55;;;;;;;8.88;4.35;;;;;;;;;;5017386;28;20197;-75
2021/01/26 12:00:23;;;;;;;5.95;4.03;;;;;;;;;;5032233;28;20182;-74
2021/01/26 12:02:49;;;;;;;9.15;4.28;;;;;;;;;;5031308;28;20193;-75
2021/01/26 12:05:16;;;;;;;8.43;4.30;;;;;;;;;;5032994;28;20190;-78
2021/01/26 12:07:43;;;;;;;11.75;4.10;;;;;;;;;;5030949;28;20241;-74
2021/01/26 12:10:09;;;;;;;6.30;4.13;;;;;;;;;;5032652;28;20350;-74
2021/01/26 12:12:36;;;;;;;11.85;4.40;;;;;;;;;;5024728;28;20191;-76
2021/01/26 12:15:02;;;;;;;12.82;6.82;;;;;;;;;;5023033;28;20199;-75
2021/01/26 12:17:28;;;;;;;12.55;4.82;;;;;;;;;;5021052;28;20189;-76
2021/01/26 12:19:54;;;;;;;6.55;3.50;;;;;;;;;;5023287;28;20173;-75
2021/01/26 12:22:20;;;;;;;7.43;3.90;;;;;;;;;;5019409;28;20209;-76
2021/01/26 12:24:46;;;;;;;6.28;3.13;;;;;;;;;;5012037;28;20194;-73
2021/01/26 12:27:12;;;;;;;4.37;3.40;;;;;;;;;;5011716;28;20600;-76
2021/01/26 12:29:38;;;;;;;14.02;3.78;;;;;;;;;;5012226;28;20436;-74
2021/01/26 12:32:04;;;;;;;5.97;3.83;;;;;;;;;;5012452;28;20187;-75
2021/01/26 12:34:30;;;;;;;14.85;5.45;;;;;;;;;;5012785;28;20208;-75
2021/01/26 12:36:56;;;;;;;7.07;4.18;;;;;;;;;;5009826;28;20177;-74
2021/01/26 12:39:22;;;;;;;9.15;4.15;;;;;;;;;;5012775;28;20184;-74
2021/01/26 12:41:48;;;;;;;15.60;5.83;;;;;;;;;;5012171;28;20186;-73
2021/01/26 12:44:14;;;;;;;12.65;4.57;;;;;;;;;;5011870;28;20436;-73
2021/01/26 12:46:40;;;;;;;7.65;3.53;;;;;;;;;;5011485;28;20199;-75
2021/01/26 12:49:06;;;;;;;7.43;4.47;;;;;;;;;;5012317;28;20289;-72
2021/01/26 12:51:32;;;;;;;10.55;5.18;;;;;;;;;;5011529;28;20422;-72
2021/01/26 12:53:58;;;;;;;8.57;4.20;;;;;;;;;;5020851;28;20465;-73
2021/01/26 12:56:24;;;;;;;10.20;4.07;;;;;;;;;;5031437;28;20566;-76
2021/01/26 12:58:50;;;;;;;10.93;5.10;;;;;;;;;;5031547;28;20441;-75
2021/01/26 13:01:16;;;;;;;6.32;3.20;;;;;;;;;;5030926;28;20780;-74
2021/01/26 13:03:42;;;;;;;9.02;5.00;;;;;;;;;;5031910;28;20188;-73
2021/01/26 13:06:08;;;;;;;6.68;4.45;;;;;;;;;;5031836;28;20190;-72
2021/01/26 13:08:35;;;;;;;7.78;5.18;;;;;;;;;;5030377;28;20205;-74
2021/01/26 13:11:01;;;;;;;11.00;4.93;;;;;;;;;;5031633;28;20205;-74
2021/01/26 13:13:28;;;;;;;11.23;5.03;;;;;;;;;;5031474;28;20186;-75
2021/01/26 13:15:54;;;;;;;6.70;4.20;;;;;;;;;;5031057;28;20449;-74
2021/01/26 13:18:20;;;;;;;7.65;4.38;;;;;;;;;;5030658;28;20605;-75
2021/01/26 13:20:46;;;;;;;6.68;4.10;;;;;;;;;;5031789;28;20272;-75
2021/01/26 13:23:12;;;;;;;7.40;6.00;;;;;;;;;;5030499;28;20369;-73
2021/01/26 13:25:39;;;;;;;9.63;5.00;;;;;;;;;;5031772;28;20421;-72
2021/01/26 13:28:05;;;;;;;10.35;5.43;;;;;;;;;;5030835;28;20795;-75
2021/01/26 13:30:32;;;;;;;7.25;4.43;;;;;;;;;;5028627;28;20590;-73
2021/01/26 13:32:58;;;;;;;10.60;4.45;;;;;;;;;;5011531;28;20189;-75
2021/01/26 13:35:27;;;;;;;10.77;7.55;;;;;;;;;;5012070;28;20265;-74
2021/01/26 13:37:53;;;;;;;7.47;4.00;;;;;;;;;;5013662;28;20199;-74
2021/01/26 13:40:19;;;;;;;14.18;5.20;;;;;;;;;;5010640;28;20264;-74
2021/01/26 13:42:46;;;;;;;7.70;4.90;;;;;;;;;;5017309;28;20754;-74
2021/01/26 13:45:12;;;;;;;8.60;4.80;;;;;;;;;;5016065;28;20228;-72
2021/01/26 13:47:38;;;;;;;10.85;4.60;;;;;;;;;;5016295;28;20191;-75
2021/01/26 13:50:06;;;;;;;7.95;4.72;;;;;;;;;;5017111;28;20694;-73
2021/01/26 13:52:32;;;;;;;9.15;4.70;;;;;;;;;;5016586;28;20182;-74
2021/01/26 13:54:58;;;;;;;8.48;4.90;;;;;;;;;;5016784;28;20209;-75
2021/01/26 13:57:24;;;;;;;4.80;4.20;;;;;;;;;;5016407;28;20198;-75
2021/01/26 13:59:50;;;;;;;7.65;4.40;;;;;;;;;;5017088;28;20413;-74
2021/01/26 14:02:16;;;;;;;10.80;4.20;;;;;;;;;;5016787;28;20175;-74
2021/01/26 14:04:42;;;;;;;8.00;3.80;;;;;;;;;;5016849;28;20886;-75
2021/01/26 14:07:08;;;;;;;11.25;4.40;;;;;;;;;;5016354;28;20425;-76
2021/01/26 14:09:34;;;;;;;10.30;4.20;;;;;;;;;;5016424;28;20226;-73
2021/01/26 14:12:01;;;;;;;5.47;3.40;;;;;;;;;;5016887;28;20186;-73
2021/01/26 14:14:27;;;;;;;6.70;4.60;;;;;;;;;;5016644;28;20481;-74
2021/01/26 14:16:53;;;;;;;4.80;4.30;;;;;;;;;;5016658;28;20179;-72
2021/01/26 14:19:19;;;;;;;10.17;5.03;;;;;;;;;;5016698;28;20410;-74
2021/01/26 14:21:45;;;;;;;7.50;4.55;;;;;;;;;;5017421;28;20410;-74
2021/01/26 14:24:11;;;;;;;7.38;4.63;;;;;;;;;;5017322;28;20262;-75
2021/01/26 14:26:38;;;;;;;7.38;4.45;;;;;;;;;;5016926;28;20258;-74
2021/01/26 14:29:04;;;;;;;7.43;5.80;;;;;;;;;;5016174;28;20580;-74
2021/01/26 14:31:31;;;;;;;16.58;5.15;;;;;;;;;;5015166;28;20203;-75
2021/01/26 14:33:58;;;;;;;10.02;4.55;;;;;;;;;;5027370;28;20261;-75
2021/01/26 14:36:24;;;;;;;15.70;4.53;;;;;;;;;;5026877;28;20173;-75
2021/01/26 14:38:50;;;;;;;6.32;4.45;;;;;;;;;;5025029;28;20219;-75
2021/01/26 14:41:16;;;;;;;9.03;4.73;;;;;;;;;;5025371;28;20264;-74
2021/01/26 14:43:42;;;;;;;10.05;3.85;;;;;;;;;;5026803;28;20412;-73
2021/01/26 14:46:08;;;;;;;5.53;4.00;;;;;;;;;;5025318;28;20178;-73
2021/01/26 14:48:34;;;;;;;8.93;3.80;;;;;;;;;;5034721;28;20424;-75